Aérodrome :
LOGIN :

S'inscrire | Disclaimer

   EN    FR    IT 

 










Légende :    VFR   VFR Marginal   IFR   IFR Intensif   IFR Très Intensif
Visi : 
Plafond : 
>= 8 km
>= 3000ft
5 à 8 km
1000 à 3000 ft
1500m à 5 km
500 à 1000 ft
800 à 1500m
200 à 500 ft
< 800m
< 200 ft
Symboles :   Orages  Brouillard  Fortes neiges  Fortes précipitations  Vent > 20 kt
SIGMETs :   Divers  Orages  Givrage  Turbulence  Onde Orograph.  Cendres Volcan.







- Altitude de l'aérodrome : 68 ft
- Code IATA : AGH


ESTA - Ängelholm-Helsingborg

DERNIER METAR :
  • 211820Z AUTO 36005KT 9999 OVC006/// 04/04 Q1021

METARs EXPIRÉS :
  • 211750Z 32009KT 9999 OVC006 05/04 Q1020
  • 211720Z 33008KT 9999 FEW002 OVC006 05/05 Q1019
  • 211650Z 32010KT 3900 BR OVC003 05/05 Q1019
  • 211620Z 29010KT 0500 R14/1100N R32/1100U FG VV002 05/05 Q1018
  • 211550Z 30009KT 0650 R14/1200N R32/1200N FG VV002 05/05 Q1018
  • 211520Z 29005KT 0800 R14/1300D R32/P1500N FG -DZ OVC002 05/05 Q1018

TAF TAF ESTA
Valide du 21 à 18h jusqu'au 21 à 23h UTC


211713Z 2118/2123 33008KT 3000 BR BKN001
BECMG 2118/2120 10010KT 5000 NSW BKN008
TEMPO 2120/2123 4000 BR BKN015
Pas de NOTAMs connus pour ce terrain.



MET'MAP, la Météo Aéronautique d'un coup d'oeil ! - Copyright ORBIFLY Décembre 2007 - Disclaimer

ORBIFLY MET'MAP TEAM :

Programmation & Développement : Alexandra Zaïnal
Conception & Développement : Baudouin d'Aumeries
Co-Programmation & Développement : Marc-Olivier Méhu
Soutien technique & logistique : Manuel Goepfert

Contact : metmap@orbifly.com




SOURCES & CREDITS :

   NOAA